sensor_id;sensor_type;location;lat;lon;timestamp;pressure;altitude;pressure_sealevel;temperature;humidity
17764;BME280;22245;52.832;13.816;2023-04-28T00:03:02;101845.88;;;3.32;69.13
17764;BME280;22245;52.832;13.816;2023-04-28T00:06:24;101836.38;;;3.28;68.97
17764;BME280;22245;52.832;13.816;2023-04-28T00:09:45;101840.06;;;3.24;69.39
17764;BME280;22245;52.832;13.816;2023-04-28T00:13:09;101827.97;;;3.18;69.98
17764;BME280;22245;52.832;13.816;2023-04-28T00:16:30;101831.56;;;3.15;70.14
17764;BME280;22245;52.832;13.816;2023-04-28T00:19:52;101830.75;;;3.13;70.64
17764;BME280;22245;52.832;13.816;2023-04-28T00:23:14;101827.38;;;3.10;70.14
17764;BME280;22245;52.832;13.816;2023-04-28T00:26:36;101831.84;;;3.08;70.79
17764;BME280;22245;52.832;13.816;2023-04-28T00:29:58;101832.88;;;3.03;70.34
17764;BME280;22245;52.832;13.816;2023-04-28T00:33:20;101829.41;;;3.01;69.75
17764;BME280;22245;52.832;13.816;2023-04-28T00:36:42;101832.16;;;2.98;69.66
17764;BME280;22245;52.832;13.816;2023-04-28T00:40:04;101822.72;;;2.93;69.98
17764;BME280;22245;52.832;13.816;2023-04-28T00:43:26;101821.97;;;2.89;71.24
17764;BME280;22245;52.832;13.816;2023-04-28T00:46:49;101822.06;;;2.86;71.13
17764;BME280;22245;52.832;13.816;2023-04-28T00:50:12;101819.44;;;2.86;70.75
17764;BME280;22245;52.832;13.816;2023-04-28T00:53:33;101822.19;;;2.83;70.68
17764;BME280;22245;52.832;13.816;2023-04-28T00:56:55;101824.94;;;2.80;71.41
17764;BME280;22245;52.832;13.816;2023-04-28T01:00:17;101815.44;;;2.75;71.21
17764;BME280;22245;52.832;13.816;2023-04-28T01:03:40;101812.94;;;2.71;71.71
17764;BME280;22245;52.832;13.816;2023-04-28T01:07:03;101808.69;;;2.68;71.54
17764;BME280;22245;52.832;13.816;2023-04-28T01:10:25;101810.50;;;2.66;71.61
17764;BME280;22245;52.832;13.816;2023-04-28T01:13:47;101809.72;;;2.63;71.53
17764;BME280;22245;52.832;13.816;2023-04-28T01:17:09;101805.44;;;2.60;71.02
17764;BME280;22245;52.832;13.816;2023-04-28T01:20:32;101803.88;;;2.54;71.63
17764;BME280;22245;52.832;13.816;2023-04-28T01:23:55;101802.22;;;2.52;71.82
17764;BME280;22245;52.832;13.816;2023-04-28T01:27:17;101811.00;;;2.51;71.02
17764;BME280;22245;52.832;13.816;2023-04-28T01:30:38;101808.50;;;2.48;71.47
17764;BME280;22245;52.832;13.816;2023-04-28T01:34:00;101808.53;;;2.46;71.76
17764;BME280;22245;52.832;13.816;2023-04-28T01:37:21;101812.16;;;2.42;71.06
17764;BME280;22245;52.832;13.816;2023-04-28T01:40:45;101805.41;;;2.35;71.50
17764;BME280;22245;52.832;13.816;2023-04-28T01:44:07;101805.59;;;2.30;71.89
17764;BME280;22245;52.832;13.816;2023-04-28T01:47:29;101801.31;;;2.26;72.19
17764;BME280;22245;52.832;13.816;2023-04-28T01:50:50;101805.72;;;2.25;72.28
17764;BME280;22245;52.832;13.816;2023-04-28T01:54:11;101804.84;;;2.25;72.30
17764;BME280;22245;52.832;13.816;2023-04-28T01:57:35;101802.31;;;2.22;72.37
17764;BME280;22245;52.832;13.816;2023-04-28T02:00:57;101805.06;;;2.19;72.64
17764;BME280;22245;52.832;13.816;2023-04-28T02:04:19;101796.38;;;2.16;72.75
17764;BME280;22245;52.832;13.816;2023-04-28T02:07:41;101795.63;;;2.13;72.59
17764;BME280;22245;52.832;13.816;2023-04-28T02:11:02;101795.78;;;2.07;73.17
17764;BME280;22245;52.832;13.816;2023-04-28T02:14:25;101798.53;;;2.03;72.96
17764;BME280;22245;52.832;13.816;2023-04-28T02:17:47;101809.09;;;2.02;73.03
17764;BME280;22245;52.832;13.816;2023-04-28T02:21:09;101802.88;;;2.05;73.56
17764;BME280;22245;52.832;13.816;2023-04-28T02:24:34;101787.22;;;2.01;72.65
17764;BME280;22245;52.832;13.816;2023-04-28T02:27:55;101790.81;;;1.99;72.94
17764;BME280;22245;52.832;13.816;2023-04-28T02:31:19;101789.09;;;1.98;73.12
17764;BME280;22245;52.832;13.816;2023-04-28T02:34:41;101798.69;;;1.99;72.92
17764;BME280;22245;52.832;13.816;2023-04-28T02:38:02;101792.66;;;1.95;73.45
17764;BME280;22245;52.832;13.816;2023-04-28T02:41:24;101783.03;;;1.96;73.49
17764;BME280;22245;52.832;13.816;2023-04-28T02:44:45;101787.47;;;1.94;73.39
17764;BME280;22245;52.832;13.816;2023-04-28T02:48:08;101788.44;;;1.91;73.79
17764;BME280;22245;52.832;13.816;2023-04-28T02:51:30;101782.41;;;1.87;74.24
17764;BME280;22245;52.832;13.816;2023-04-28T02:54:52;101782.47;;;1.86;73.99
17764;BME280;22245;52.832;13.816;2023-04-28T02:58:17;101779.06;;;1.82;73.79
17764;BME280;22245;52.832;13.816;2023-04-28T03:01:39;101779.97;;;1.81;73.40
17764;BME280;22245;52.832;13.816;2023-04-28T03:05:02;101782.50;;;1.84;73.07
17764;BME280;22245;52.832;13.816;2023-04-28T03:08:24;101773.66;;;1.87;72.73
17764;BME280;22245;52.832;13.816;2023-04-28T03:11:46;101773.66;;;1.87;72.45
17764;BME280;22245;52.832;13.816;2023-04-28T03:15:08;101765.81;;;1.85;72.13
17764;BME280;22245;52.832;13.816;2023-04-28T03:18:33;101769.34;;;1.84;72.30
17764;BME280;22245;52.832;13.816;2023-04-28T03:21:56;101763.19;;;1.85;72.73
17764;BME280;22245;52.832;13.816;2023-04-28T03:25:18;101764.97;;;1.85;71.88
17764;BME280;22245;52.832;13.816;2023-04-28T03:28:43;101761.47;;;1.84;72.50
17764;BME280;22245;52.832;13.816;2023-04-28T03:32:07;101757.09;;;1.85;72.29
17764;BME280;22245;52.832;13.816;2023-04-28T03:35:28;101764.97;;;1.85;72.56
17764;BME280;22245;52.832;13.816;2023-04-28T03:38:51;101758.84;;;1.84;72.58
17764;BME280;22245;52.832;13.816;2023-04-28T03:42:13;101753.56;;;1.86;72.80
17764;BME280;22245;52.832;13.816;2023-04-28T03:46:04;101753.50;;;1.87;72.42
17764;BME280;22245;52.832;13.816;2023-04-28T03:49:26;101753.50;;;1.87;73.03
17764;BME280;22245;52.832;13.816;2023-04-28T03:52:47;101752.59;;;1.88;73.02
17764;BME280;22245;52.832;13.816;2023-04-28T03:56:11;101758.69;;;1.91;73.21
17764;BME280;22245;52.832;13.816;2023-04-28T03:59:33;101749.88;;;1.92;73.80
17764;BME280;22245;52.832;13.816;2023-04-28T04:02:54;101751.50;;;1.96;73.85
17764;BME280;22245;52.832;13.816;2023-04-28T04:06:16;101753.13;;;2.00;73.98
17764;BME280;22245;52.832;13.816;2023-04-28T04:09:37;101751.19;;;2.05;74.06
17764;BME280;22245;52.832;13.816;2023-04-28T04:13:00;101748.34;;;2.11;74.04
17764;BME280;22245;52.832;13.816;2023-04-28T04:16:22;101749.94;;;2.17;73.99
17764;BME280;22245;52.832;13.816;2023-04-28T04:19:47;101742.75;;;2.22;73.70
17764;BME280;22245;52.832;13.816;2023-04-28T04:23:08;101745.13;;;2.30;73.75
17764;BME280;22245;52.832;13.816;2023-04-28T04:26:30;101742.28;;;2.36;73.58
17764;BME280;22245;52.832;13.816;2023-04-28T04:29:54;101745.53;;;2.43;73.77
17764;BME280;22245;52.832;13.816;2023-04-28T04:33:15;101747.06;;;2.50;73.86
17764;BME280;22245;52.832;13.816;2023-04-28T04:36:37;101741.47;;;2.59;74.00
17764;BME280;22245;52.832;13.816;2023-04-28T04:39:59;101739.41;;;2.68;74.21
17764;BME280;22245;52.832;13.816;2023-04-28T04:43:26;101740.84;;;2.77;74.54
17764;BME280;22245;52.832;13.816;2023-04-28T04:46:49;101747.50;;;2.87;74.46
17764;BME280;22245;52.832;13.816;2023-04-28T04:50:12;101746.22;;;2.97;74.68
17764;BME280;22245;52.832;13.816;2023-04-28T04:53:34;101735.25;;;3.10;74.46
17764;BME280;22245;52.832;13.816;2023-04-28T04:56:55;101740.06;;;3.22;74.45
17764;BME280;22245;52.832;13.816;2023-04-28T05:00:44;101731.75;;;3.33;74.32
17764;BME280;22245;52.832;13.816;2023-04-28T05:04:07;101730.41;;;3.45;74.28
17764;BME280;22245;52.832;13.816;2023-04-28T05:07:29;101731.63;;;3.58;73.18
17764;BME280;22245;52.832;13.816;2023-04-28T05:10:50;101731.25;;;3.68;72.90
17764;BME280;22245;52.832;13.816;2023-04-28T05:14:12;101727.44;;;3.75;72.93
17764;BME280;22245;52.832;13.816;2023-04-28T05:17:34;101720.09;;;3.83;72.67
17764;BME280;22245;52.832;13.816;2023-04-28T05:20:57;101716.16;;;3.94;71.94
17764;BME280;22245;52.832;13.816;2023-04-28T05:24:20;101707.03;;;4.02;71.30
17764;BME280;22245;52.832;13.816;2023-04-28T05:27:44;101708.38;;;4.11;71.41
17764;BME280;22245;52.832;13.816;2023-04-28T05:31:05;101705.25;;;4.24;70.99
17764;BME280;22245;52.832;13.816;2023-04-28T05:34:28;101711.81;;;4.34;70.90
17764;BME280;22245;52.832;13.816;2023-04-28T05:37:51;101711.50;;;4.42;70.78
17764;BME280;22245;52.832;13.816;2023-04-28T05:41:13;101702.38;;;4.49;70.89
17764;BME280;22245;52.832;13.816;2023-04-28T05:44:35;101706.28;;;4.61;70.63
17764;BME280;22245;52.832;13.816;2023-04-28T05:47:56;101704.94;;;4.71;70.82
17764;BME280;22245;52.832;13.816;2023-04-28T05:51:18;101694.88;;;4.80;70.72
17764;BME280;22245;52.832;13.816;2023-04-28T05:54:42;101697.03;;;4.90;70.13
17764;BME280;22245;52.832;13.816;2023-04-28T05:58:04;101697.47;;;5.00;69.64
17764;BME280;22245;52.832;13.816;2023-04-28T06:01:26;101689.09;;;5.10;69.38
17764;BME280;22245;52.832;13.816;2023-04-28T06:04:48;101690.22;;;5.23;67.88
17764;BME280;22245;52.832;13.816;2023-04-28T06:08:10;101678.38;;;5.32;66.59
17764;BME280;22245;52.832;13.816;2023-04-28T06:11:33;101677.00;;;5.42;66.28
17764;BME280;22245;52.832;13.816;2023-04-28T06:14:55;101686.91;;;5.56;65.37
17764;BME280;22245;52.832;13.816;2023-04-28T06:18:18;101675.03;;;5.65;64.96
17764;BME280;22245;52.832;13.816;2023-04-28T06:21:40;101667.50;;;5.75;65.01
17764;BME280;22245;52.832;13.816;2023-04-28T06:25:02;101662.59;;;5.85;65.10
17764;BME280;22245;52.832;13.816;2023-04-28T06:28:30;101662.97;;;5.94;65.25
17764;BME280;22245;52.832;13.816;2023-04-28T06:31:51;101664.25;;;6.05;64.69
17764;BME280;22245;52.832;13.816;2023-04-28T06:35:17;101653.13;;;6.16;64.36
17764;BME280;22245;52.832;13.816;2023-04-28T06:38:38;101657.84;;;6.27;64.25
17764;BME280;22245;52.832;13.816;2023-04-28T06:42:00;101658.13;;;6.38;64.12
17764;BME280;22245;52.832;13.816;2023-04-28T06:45:25;101649.56;;;6.50;64.40
17764;BME280;22245;52.832;13.816;2023-04-28T06:48:49;101649.75;;;6.63;63.98
17764;BME280;22245;52.832;13.816;2023-04-28T06:52:10;101646.69;;;6.71;63.91
17764;BME280;22245;52.832;13.816;2023-04-28T06:55:33;101646.09;;;6.82;63.27
17764;BME280;22245;52.832;13.816;2023-04-28T06:58:55;101626.88;;;6.94;63.13
17764;BME280;22245;52.832;13.816;2023-04-28T07:02:19;101632.34;;;7.07;62.39
17764;BME280;22245;52.832;13.816;2023-04-28T07:05:41;101627.22;;;7.20;62.31
17764;BME280;22245;52.832;13.816;2023-04-28T07:09:03;101619.41;;;7.33;61.52
17764;BME280;22245;52.832;13.816;2023-04-28T07:12:26;101613.56;;;7.43;60.98
17764;BME280;22245;52.832;13.816;2023-04-28T07:15:48;101613.53;;;7.59;61.31
17764;BME280;22245;52.832;13.816;2023-04-28T07:19:11;101616.22;;;7.73;60.56
17764;BME280;22245;52.832;13.816;2023-04-28T07:22:33;101604.78;;;7.87;60.29
17764;BME280;22245;52.832;13.816;2023-04-28T07:25:56;101601.13;;;8.04;59.33
17764;BME280;22245;52.832;13.816;2023-04-28T07:29:20;101595.72;;;8.20;57.38
17764;BME280;22245;52.832;13.816;2023-04-28T07:32:41;101597.53;;;8.34;56.81
17764;BME280;22245;52.832;13.816;2023-04-28T07:36:06;101584.34;;;8.47;55.82
17764;BME280;22245;52.832;13.816;2023-04-28T07:39:27;101588.63;;;8.64;55.64
17764;BME280;22245;52.832;13.816;2023-04-28T07:42:49;101584.13;;;8.79;54.82
17764;BME280;22245;52.832;13.816;2023-04-28T07:46:11;101584.97;;;8.94;53.41
17764;BME280;22245;52.832;13.816;2023-04-28T07:49:33;101580.53;;;9.08;53.58
17764;BME280;22245;52.832;13.816;2023-04-28T07:52:57;101575.91;;;9.24;53.38
17764;BME280;22245;52.832;13.816;2023-04-28T07:56:18;101572.66;;;9.34;52.69
17764;BME280;22245;52.832;13.816;2023-04-28T07:59:41;101571.06;;;9.44;52.44
17764;BME280;22245;52.832;13.816;2023-04-28T08:03:03;101571.94;;;9.58;51.82
17764;BME280;22245;52.832;13.816;2023-04-28T08:06:25;101566.63;;;9.70;51.44
17764;BME280;22245;52.832;13.816;2023-04-28T08:09:47;101570.16;;;9.84;49.13
17764;BME280;22245;52.832;13.816;2023-04-28T08:13:12;101561.94;;;10.00;49.29
17764;BME280;22245;52.832;13.816;2023-04-28T08:16:35;101561.94;;;10.13;48.31
17764;BME280;22245;52.832;13.816;2023-04-28T08:19:59;101561.09;;;10.25;47.28
17764;BME280;22245;52.832;13.816;2023-04-28T08:23:20;101552.22;;;10.38;44.92
17764;BME280;22245;52.832;13.816;2023-04-28T08:26:43;101555.75;;;10.51;44.80
17764;BME280;22245;52.832;13.816;2023-04-28T08:30:06;101546.00;;;10.63;45.29
17764;BME280;22245;52.832;13.816;2023-04-28T08:33:28;101547.91;;;10.74;44.91
17764;BME280;22245;52.832;13.816;2023-04-28T08:36:50;101549.78;;;10.85;44.28
17764;BME280;22245;52.832;13.816;2023-04-28T08:40:12;101540.25;;;10.94;45.23
17764;BME280;22245;52.832;13.816;2023-04-28T08:43:36;101537.88;;;11.02;45.11
17764;BME280;22245;52.832;13.816;2023-04-28T08:47:02;101531.72;;;11.13;44.24
17764;BME280;22245;52.832;13.816;2023-04-28T08:50:26;101523.88;;;11.23;43.84
17764;BME280;22245;52.832;13.816;2023-04-28T08:53:52;101520.66;;;11.31;43.49
17764;BME280;22245;52.832;13.816;2023-04-28T08:57:18;101520.78;;;11.40;43.34
17764;BME280;22245;52.832;13.816;2023-04-28T09:00:42;101515.72;;;11.49;43.37
17764;BME280;22245;52.832;13.816;2023-04-28T09:04:04;101505.31;;;11.57;43.42
17764;BME280;22245;52.832;13.816;2023-04-28T09:07:26;101506.66;;;11.63;45.04
17764;BME280;22245;52.832;13.816;2023-04-28T09:11:04;101496.22;;;11.71;44.59
17764;BME280;22245;52.832;13.816;2023-04-28T09:14:27;101496.38;;;11.81;43.56
17764;BME280;22245;52.832;13.816;2023-04-28T09:17:51;101486.88;;;11.88;42.38
17764;BME280;22245;52.832;13.816;2023-04-28T09:21:13;101482.75;;;11.95;43.02
17764;BME280;22245;52.832;13.816;2023-04-28T09:24:37;101488.72;;;11.99;42.25
17764;BME280;22245;52.832;13.816;2023-04-28T09:28:18;101482.66;;;12.08;42.32
17764;BME280;22245;52.832;13.816;2023-04-28T09:31:40;101472.09;;;12.18;42.06
17764;BME280;22245;52.832;13.816;2023-04-28T09:35:04;101470.38;;;12.28;42.20
17764;BME280;22245;52.832;13.816;2023-04-28T09:38:26;101463.44;;;12.37;42.00
17764;BME280;22245;52.832;13.816;2023-04-28T09:41:48;101467.06;;;12.48;42.32
17764;BME280;22245;52.832;13.816;2023-04-28T09:45:10;101459.66;;;12.51;41.60
17764;BME280;22245;52.832;13.816;2023-04-28T09:48:33;101464.34;;;12.59;42.62
17764;BME280;22245;52.832;13.816;2023-04-28T09:52:11;101450.09;;;12.70;42.12
17764;BME280;22245;52.832;13.816;2023-04-28T09:55:34;101438.78;;;12.78;41.95
17764;BME280;22245;52.832;13.816;2023-04-28T09:58:57;101440.06;;;12.83;41.86
17764;BME280;22245;52.832;13.816;2023-04-28T10:02:20;101442.09;;;12.91;41.74
17764;BME280;22245;52.832;13.816;2023-04-28T10:06:02;101439.50;;;13.01;42.08
17764;BME280;22245;52.832;13.816;2023-04-28T10:09:26;101431.22;;;13.04;42.29
17764;BME280;22245;52.832;13.816;2023-04-28T10:12:48;101433.81;;;13.15;42.65
17764;BME280;22245;52.832;13.816;2023-04-28T10:16:09;101424.28;;;13.23;42.16
17764;BME280;22245;52.832;13.816;2023-04-28T10:19:32;101421.13;;;13.29;42.11
17764;BME280;22245;52.832;13.816;2023-04-28T10:23:01;101417.91;;;13.35;41.56
17764;BME280;22245;52.832;13.816;2023-04-28T10:27:01;101405.25;;;13.37;42.04
17764;BME280;22245;52.832;13.816;2023-04-28T10:30:24;101404.72;;;13.43;42.92
17764;BME280;22245;52.832;13.816;2023-04-28T10:33:49;101397.59;;;13.54;42.03
17764;BME280;22245;52.832;13.816;2023-04-28T10:37:11;101390.00;;;13.59;42.20
17764;BME280;22245;52.832;13.816;2023-04-28T10:40:36;101394.25;;;13.62;41.33
17764;BME280;22245;52.832;13.816;2023-04-28T10:43:59;101380.31;;;13.68;41.46
17764;BME280;22245;52.832;13.816;2023-04-28T10:47:20;101397.78;;;13.72;40.66
17764;BME280;22245;52.832;13.816;2023-04-28T10:51:22;101372.16;;;13.79;41.17
17764;BME280;22245;52.832;13.816;2023-04-28T10:55:25;101371.66;;;13.85;40.44
17764;BME280;22245;52.832;13.816;2023-04-28T10:58:48;101362.19;;;13.91;40.39
17764;BME280;22245;52.832;13.816;2023-04-28T11:06:22;101357.44;;;14.04;41.55
17764;BME280;22245;52.832;13.816;2023-04-28T11:09:46;101361.25;;;14.12;40.78
17764;BME280;22245;52.832;13.816;2023-04-28T11:13:24;101350.81;;;14.18;40.31
17764;BME280;22245;52.832;13.816;2023-04-28T11:16:47;101350.28;;;14.25;39.31
17764;BME280;22245;52.832;13.816;2023-04-28T11:20:11;101356.59;;;14.33;40.35
17764;BME280;22245;52.832;13.816;2023-04-28T11:23:38;101350.41;;;14.43;40.51
17764;BME280;22245;52.832;13.816;2023-04-28T11:27:00;101338.69;;;14.54;39.63
17764;BME280;22245;52.832;13.816;2023-04-28T11:30:21;101344.31;;;14.60;40.93
17764;BME280;22245;52.832;13.816;2023-04-28T11:33:45;101346.16;;;14.70;40.38
17764;BME280;22245;52.832;13.816;2023-04-28T11:37:14;101337.56;;;14.76;40.42
17764;BME280;22245;52.832;13.816;2023-04-28T11:40:37;101340.38;;;14.84;39.84
17764;BME280;22245;52.832;13.816;2023-04-28T11:43:59;101340.78;;;14.89;38.89
17764;BME280;22245;52.832;13.816;2023-04-28T11:47:28;101338.34;;;14.96;39.58
17764;BME280;22245;52.832;13.816;2023-04-28T11:50:50;101331.56;;;15.02;38.76
17764;BME280;22245;52.832;13.816;2023-04-28T11:54:13;101330.44;;;15.04;38.52
17764;BME280;22245;52.832;13.816;2023-04-28T11:57:36;101333.38;;;15.11;38.69
17764;BME280;22245;52.832;13.816;2023-04-28T12:01:07;101325.88;;;15.15;38.96
17764;BME280;22245;52.832;13.816;2023-04-28T12:04:30;101318.53;;;15.17;38.95
17764;BME280;22245;52.832;13.816;2023-04-28T12:07:54;101316.13;;;15.24;39.71
17764;BME280;22245;52.832;13.816;2023-04-28T12:11:16;101298.72;;;15.28;39.13
17764;BME280;22245;52.832;13.816;2023-04-28T12:14:56;101312.84;;;15.30;38.88
17764;BME280;22245;52.832;13.816;2023-04-28T12:18:18;101302.78;;;15.32;39.57
17764;BME280;22245;52.832;13.816;2023-04-28T12:21:40;101298.97;;;15.34;39.36
17764;BME280;22245;52.832;13.816;2023-04-28T12:25:06;101293.16;;;15.39;39.54
17764;BME280;22245;52.832;13.816;2023-04-28T12:28:38;101291.47;;;15.38;39.59
17764;BME280;22245;52.832;13.816;2023-04-28T12:32:02;101296.91;;;15.46;39.79
17764;BME280;22245;52.832;13.816;2023-04-28T12:35:25;101284.88;;;15.51;39.56
17764;BME280;22245;52.832;13.816;2023-04-28T12:38:47;101284.16;;;15.58;39.20
17764;BME280;22245;52.832;13.816;2023-04-28T12:42:09;101281.31;;;15.60;38.74
17764;BME280;22245;52.832;13.816;2023-04-28T12:45:31;101284.41;;;15.65;39.08
17764;BME280;22245;52.832;13.816;2023-04-28T12:48:54;101280.72;;;15.66;40.00
17764;BME280;22245;52.832;13.816;2023-04-28T12:52:16;101278.41;;;15.71;39.57
17764;BME280;22245;52.832;13.816;2023-04-28T12:55:37;101272.03;;;15.72;40.58
17764;BME280;22245;52.832;13.816;2023-04-28T12:58:59;101264.38;;;15.77;39.93
17764;BME280;22245;52.832;13.816;2023-04-28T13:02:22;101267.44;;;15.83;39.25
17764;BME280;22245;52.832;13.816;2023-04-28T13:05:46;101257.25;;;15.86;38.77
17764;BME280;22245;52.832;13.816;2023-04-28T13:09:09;101252.28;;;15.91;39.23
17764;BME280;22245;52.832;13.816;2023-04-28T13:12:34;101245.91;;;15.93;39.30
17764;BME280;22245;52.832;13.816;2023-04-28T13:15:56;101252.84;;;15.95;39.05
17764;BME280;22245;52.832;13.816;2023-04-28T13:19:18;101236.53;;;15.97;38.75
17764;BME280;22245;52.832;13.816;2023-04-28T13:22:41;101233.63;;;15.90;38.78
17764;BME280;22245;52.832;13.816;2023-04-28T13:26:02;101233.63;;;15.90;39.21
17764;BME280;22245;52.832;13.816;2023-04-28T13:29:24;101232.94;;;15.88;39.44
17764;BME280;22245;52.832;13.816;2023-04-28T13:32:46;101229.25;;;15.89;39.58
17764;BME280;22245;52.832;13.816;2023-04-28T13:36:07;101229.97;;;15.91;39.28
17764;BME280;22245;52.832;13.816;2023-04-28T13:39:31;101224.44;;;15.93;39.31
17764;BME280;22245;52.832;13.816;2023-04-28T13:42:52;101209.84;;;15.95;39.21
17764;BME280;22245;52.832;13.816;2023-04-28T13:46:14;101207.84;;;15.97;39.60
17764;BME280;22245;52.832;13.816;2023-04-28T13:49:37;101208.53;;;15.99;39.60
17764;BME280;22245;52.832;13.816;2023-04-28T13:52:59;101208.38;;;16.01;39.95
17764;BME280;22245;52.832;13.816;2023-04-28T13:56:23;101203.53;;;16.04;40.79
17764;BME280;22245;52.832;13.816;2023-04-28T13:59:45;101193.31;;;16.08;39.41
17764;BME280;22245;52.832;13.816;2023-04-28T14:03:06;101187.47;;;16.13;39.60
17764;BME280;22245;52.832;13.816;2023-04-28T14:06:29;101183.97;;;16.12;39.26
17764;BME280;22245;52.832;13.816;2023-04-28T14:09:53;101186.47;;;16.14;38.70
17764;BME280;22245;52.832;13.816;2023-04-28T14:13:16;101181.47;;;16.19;38.97
17764;BME280;22245;52.832;13.816;2023-04-28T14:16:38;101175.78;;;16.22;39.15
17764;BME280;22245;52.832;13.816;2023-04-28T14:20:01;101176.78;;;16.21;39.65
17764;BME280;22245;52.832;13.816;2023-04-28T14:23:23;101167.88;;;16.20;39.58
17764;BME280;22245;52.832;13.816;2023-04-28T14:26:45;101169.41;;;16.23;40.68
17764;BME280;22245;52.832;13.816;2023-04-28T14:30:10;101169.06;;;16.26;40.37
17764;BME280;22245;52.832;13.816;2023-04-28T14:33:31;101158.03;;;16.29;40.61
17764;BME280;22245;52.832;13.816;2023-04-28T14:36:53;101148.81;;;16.32;39.99
17764;BME280;22245;52.832;13.816;2023-04-28T14:40:14;101156.66;;;16.25;39.04
17764;BME280;22245;52.832;13.816;2023-04-28T14:43:36;101151.94;;;16.27;39.29
17764;BME280;22245;52.832;13.816;2023-04-28T14:47:00;101150.66;;;16.31;39.39
17764;BME280;22245;52.832;13.816;2023-04-28T14:50:22;101152.84;;;16.36;39.14
17764;BME280;22245;52.832;13.816;2023-04-28T14:53:44;101147.34;;;16.38;38.86
17764;BME280;22245;52.832;13.816;2023-04-28T14:57:06;101139.25;;;16.38;39.72
17764;BME280;22245;52.832;13.816;2023-04-28T15:00:27;101132.03;;;16.38;40.27
17764;BME280;22245;52.832;13.816;2023-04-28T15:03:51;101127.34;;;16.40;39.85
17764;BME280;22245;52.832;13.816;2023-04-28T15:07:13;101122.81;;;16.41;39.64
17764;BME280;22245;52.832;13.816;2023-04-28T15:10:37;101121.13;;;16.40;39.39
17764;BME280;22245;52.832;13.816;2023-04-28T15:13:59;101114.06;;;16.39;39.72
17764;BME280;22245;52.832;13.816;2023-04-28T15:17:21;101114.56;;;16.42;40.10
17764;BME280;22245;52.832;13.816;2023-04-28T15:20:44;101113.91;;;16.40;39.75
17764;BME280;22245;52.832;13.816;2023-04-28T15:24:06;101115.75;;;16.40;39.65
17764;BME280;22245;52.832;13.816;2023-04-28T15:27:27;101115.75;;;16.40;39.78
17764;BME280;22245;52.832;13.816;2023-04-28T15:30:49;101111.03;;;16.33;39.77
17764;BME280;22245;52.832;13.816;2023-04-28T15:34:10;101111.16;;;16.32;40.08
17764;BME280;22245;52.832;13.816;2023-04-28T15:37:39;101115.03;;;16.29;40.61
17764;BME280;22245;52.832;13.816;2023-04-28T15:41:02;101107.28;;;16.26;40.88
17764;BME280;22245;52.832;13.816;2023-04-28T15:44:24;101109.44;;;16.23;40.82
17764;BME280;22245;52.832;13.816;2023-04-28T15:47:49;101106.91;;;16.21;41.54
17764;BME280;22245;52.832;13.816;2023-04-28T15:51:11;101101.03;;;16.17;41.80
17764;BME280;22245;52.832;13.816;2023-04-28T15:54:34;101112.94;;;16.15;42.29
17764;BME280;22245;52.832;13.816;2023-04-28T15:57:56;101110.72;;;16.10;42.42
17764;BME280;22245;52.832;13.816;2023-04-28T16:01:18;101103.81;;;16.08;42.24
17764;BME280;22245;52.832;13.816;2023-04-28T16:04:40;101103.44;;;16.02;42.99
17764;BME280;22245;52.832;13.816;2023-04-28T16:08:02;101099.41;;;15.98;43.70
17764;BME280;22245;52.832;13.816;2023-04-28T16:11:25;101099.03;;;15.93;44.92
17764;BME280;22245;52.832;13.816;2023-04-28T16:14:47;101090.72;;;15.86;44.50
17764;BME280;22245;52.832;13.816;2023-04-28T16:18:09;101096.56;;;15.82;44.89
17764;BME280;22245;52.832;13.816;2023-04-28T16:21:30;101095.50;;;15.74;45.85
17764;BME280;22245;52.832;13.816;2023-04-28T16:24:52;101088.75;;;15.70;46.23
17764;BME280;22245;52.832;13.816;2023-04-28T16:28:15;101096.44;;;15.65;47.57
17764;BME280;22245;52.832;13.816;2023-04-28T16:31:37;101094.22;;;15.60;47.20
17764;BME280;22245;52.832;13.816;2023-04-28T16:34:59;101088.47;;;15.55;48.09
17764;BME280;22245;52.832;13.816;2023-04-28T16:38:21;101083.72;;;15.49;48.14
17764;BME280;22245;52.832;13.816;2023-04-28T16:41:42;101087.19;;;15.41;47.72
17764;BME280;22245;52.832;13.816;2023-04-28T16:45:07;101077.38;;;15.32;47.84
17764;BME280;22245;52.832;13.816;2023-04-28T16:48:29;101077.16;;;15.25;48.23
17764;BME280;22245;52.832;13.816;2023-04-28T16:51:55;101071.56;;;15.18;49.34
17764;BME280;22245;52.832;13.816;2023-04-28T16:55:16;101074.84;;;15.12;49.71
17764;BME280;22245;52.832;13.816;2023-04-28T16:58:38;101072.94;;;15.04;50.37
17764;BME280;22245;52.832;13.816;2023-04-28T17:02:01;101066.50;;;14.97;50.90
17764;BME280;22245;52.832;13.816;2023-04-28T17:05:24;101061.59;;;14.93;51.34
17764;BME280;22245;52.832;13.816;2023-04-28T17:08:46;101061.19;;;14.87;51.28
17764;BME280;22245;52.832;13.816;2023-04-28T17:12:08;101072.38;;;14.83;51.75
17764;BME280;22245;52.832;13.816;2023-04-28T17:15:29;101062.13;;;14.78;52.65
17764;BME280;22245;52.832;13.816;2023-04-28T17:18:53;101061.69;;;14.73;52.82
17764;BME280;22245;52.832;13.816;2023-04-28T17:22:14;101061.97;;;14.70;54.13
17764;BME280;22245;52.832;13.816;2023-04-28T17:25:36;101069.50;;;14.66;54.50
17764;BME280;22245;52.832;13.816;2023-04-28T17:28:58;101065.56;;;14.60;54.69
17764;BME280;22245;52.832;13.816;2023-04-28T17:32:21;101059.81;;;14.55;55.57
17764;BME280;22245;52.832;13.816;2023-04-28T17:35:44;101055.88;;;14.50;55.64
17764;BME280;22245;52.832;13.816;2023-04-28T17:39:06;101055.34;;;14.46;55.75
17764;BME280;22245;52.832;13.816;2023-04-28T17:42:28;101054.09;;;14.40;56.83